Time;durP1;ratioP1;P1;durP2;ratioP2;P2;SDS_P1;SDS_P2;PMS_P1;PMS_P2;Temp;Humidity;BMP_temperature;BMP_pressure;BME280_temperature;BME280_humidity;BME280_pressure;Samples;Min_cycle;Max_cycle;Signal;HPM_P1;HPM_P2
2022/08/12 00:44:21;;;;;;;2.60;2.50;;;17.10;86.10;;;;;;5031189;28;20186;-77
2022/08/12 00:46:59;;;;;;;2.28;2.17;;;17.20;86.10;;;;;;5038776;28;20246;-77
2022/08/12 00:49:27;;;;;;;2.13;2.03;;;17.20;86.20;;;;;;5032939;28;20222;-76
2022/08/12 00:52:10;;;;;;;2.60;2.40;;;17.20;86.60;;;;;;5032558;28;20769;-77
2022/08/12 00:54:51;;;;;;;2.33;2.22;;;17.20;86.20;;;;;;5027923;28;20558;-75
2022/08/12 00:57:17;;;;;;;2.55;2.22;;;17.30;86.50;;;;;;5038845;28;20212;-77
2022/08/12 00:59:48;;;;;;;2.30;2.17;;;17.30;86.70;;;;;;5045531;28;20621;-75
2022/08/12 01:02:45;;;;;;;2.47;2.28;;;17.20;86.90;;;;;;5029523;28;20569;-76
2022/08/12 01:13:38;;;;;;;3.55;2.65;;;17.10;89.30;;;;;;5038955;28;20510;-75
2022/08/12 01:16:06;;;;;;;2.70;2.50;;;17.10;88.10;;;;;;5034495;28;20192;-78
2022/08/12 01:18:35;;;;;;;2.50;2.38;;;17.20;88.90;;;;;;5037773;28;20188;-75
2022/08/12 01:21:25;;;;;;;3.78;2.47;;;17.20;87.60;;;;;;5035472;28;20290;-76
2022/08/12 01:24:03;;;;;;;2.97;2.30;;;17.20;87.00;;;;;;5017886;28;20168;-75
2022/08/12 01:26:31;;;;;;;2.17;2.08;;;17.20;86.70;;;;;;5027887;28;20196;-76
2022/08/12 01:28:58;;;;;;;2.55;2.35;;;17.30;86.20;;;;;;5033777;28;20191;-76
2022/08/12 01:31:26;;;;;;;2.40;2.30;;;17.30;86.40;;;;;;5030941;28;20192;-74
2022/08/12 01:33:58;;;;;;;2.47;2.22;;;17.30;86.20;;;;;;5028899;28;20186;-74
2022/08/12 01:36:27;;;;;;;2.58;2.45;;;17.30;87.80;;;;;;5028329;28;20192;-74
2022/08/12 01:38:56;;;;;;;2.25;2.15;;;17.30;86.10;;;;;;5033956;28;20206;-74
2022/08/12 01:41:24;;;;;;;3.80;2.58;;;17.30;86.00;;;;;;5027756;28;20617;-74
2022/08/12 01:43:53;;;;;;;2.38;2.28;;;17.30;86.00;;;;;;5026241;28;20529;-74
2022/08/12 01:46:42;;;;;;;2.38;2.22;;;17.20;85.60;;;;;;5027347;28;20201;-76
2022/08/12 01:49:42;;;;;;;2.17;2.08;;;17.20;85.70;;;;;;5025614;28;20556;-76
2022/08/12 01:52:33;;;;;;;2.13;1.95;;;17.20;86.20;;;;;;5034135;28;20241;-76
2022/08/12 01:55:00;;;;;;;2.45;2.25;;;17.10;86.10;;;;;;5024170;28;20246;-78
2022/08/12 01:58:03;;;;;;;2.38;2.17;;;17.10;86.70;;;;;;5022485;28;20205;-76
2022/08/12 02:00:47;;;;;;;2.10;2.00;;;17.10;87.10;;;;;;5048772;28;20192;-77
2022/08/12 02:03:25;;;;;;;2.58;2.38;;;17.10;87.50;;;;;;5030824;28;20235;-77
2022/08/12 02:12:01;;;;;;;2.45;2.35;;;17.00;90.00;;;;;;5026208;28;20182;-77
2022/08/12 02:14:49;;;;;;;2.85;2.67;;;17.00;90.10;;;;;;5022639;28;20243;-77
2022/08/12 02:17:45;;;;;;;3.05;2.50;;;17.00;90.40;;;;;;5020430;28;20200;-77
2022/08/12 02:20:22;;;;;;;2.47;2.28;;;17.00;89.20;;;;;;5024745;28;20177;-76
2022/08/12 02:22:50;;;;;;;3.50;2.55;;;16.90;88.30;;;;;;5028000;28;20678;-76
2022/08/12 02:25:32;;;;;;;2.95;2.22;;;16.90;88.60;;;;;;5021794;28;20181;-76
2022/08/12 02:27:59;;;;;;;2.60;2.40;;;16.80;88.80;;;;;;5021295;28;20239;-76
2022/08/12 02:30:30;;;;;;;2.50;2.30;;;16.80;89.60;;;;;;5024342;28;20181;-76
2022/08/12 02:32:58;;;;;;;3.05;2.30;;;16.70;90.10;;;;;;5026400;28;20208;-76
2022/08/12 02:35:29;;;;;;;2.42;2.17;;;16.70;90.00;;;;;;5028980;28;20215;-76
2022/08/12 02:38:00;;;;;;;2.92;2.65;;;16.60;90.20;;;;;;5028026;28;20175;-76
2022/08/12 02:40:27;;;;;;;2.55;2.35;;;16.50;90.50;;;;;;5023059;28;20173;-76
2022/08/12 02:43:02;;;;;;;2.13;2.03;;;16.50;90.60;;;;;;5028160;28;20694;-76
2022/08/12 02:45:54;;;;;;;2.92;2.35;;;16.40;90.90;;;;;;5024495;28;20204;-76
2022/08/12 02:48:32;;;;;;;2.17;2.08;;;16.30;90.90;;;;;;5026011;28;20268;-76
2022/08/12 02:51:04;;;;;;;2.63;2.40;;;16.30;91.10;;;;;;5025207;28;20260;-76
2022/08/12 02:53:32;;;;;;;3.75;2.40;;;16.20;91.20;;;;;;5024091;28;20288;-75
2022/08/12 02:56:01;;;;;;;3.25;2.38;;;16.20;91.50;;;;;;5024794;28;20219;-75
2022/08/12 02:58:30;;;;;;;2.47;2.38;;;16.20;92.00;;;;;;5027637;28;20180;-75
2022/08/12 03:01:00;;;;;;;2.45;1.98;;;16.10;92.30;;;;;;5029500;28;20660;-75
2022/08/12 03:03:31;;;;;;;2.17;2.08;;;16.20;92.70;;;;;;5014660;28;20421;-75
2022/08/12 03:06:12;;;;;;;2.42;2.33;;;16.10;92.80;;;;;;5022197;28;20223;-75
2022/08/12 03:08:42;;;;;;;2.67;2.47;;;16.10;93.20;;;;;;5028348;28;20187;-76
2022/08/12 03:12:03;;;;;;;3.55;3.25;;;16.20;93.30;;;;;;5033328;28;20176;-76
2022/08/12 03:14:33;;;;;;;3.60;2.63;;;16.10;94.10;;;;;;5009198;28;20775;-77
2022/08/12 03:17:10;;;;;;;3.45;3.05;;;16.10;94.70;;;;;;5029906;28;20683;-77
2022/08/12 03:19:43;;;;;;;3.97;2.72;;;16.10;94.50;;;;;;5036681;28;20168;-76
2022/08/12 03:22:14;;;;;;;3.17;2.97;;;16.10;94.50;;;;;;5027979;28;20236;-78
2022/08/12 03:24:42;;;;;;;3.13;2.83;;;16.00;94.80;;;;;;5033235;28;20176;-75
2022/08/12 03:27:09;;;;;;;3.20;3.00;;;15.90;95.20;;;;;;5025819;28;20205;-74
2022/08/12 03:29:39;;;;;;;5.85;2.92;;;15.90;96.50;;;;;;5034055;28;20168;-74
2022/08/12 03:32:05;;;;;;;2.70;2.40;;;15.70;96.40;;;;;;5031037;28;20525;-75
2022/08/12 03:34:34;;;;;;;2.97;2.78;;;15.70;96.70;;;;;;5037096;28;20242;-74
2022/08/12 03:37:01;;;;;;;3.13;2.92;;;15.60;97.20;;;;;;5031274;28;20197;-74
2022/08/12 03:42:27;;;;;;;3.03;2.83;;;15.50;97.90;;;;;;5024054;28;20279;-75
2022/08/12 04:01:56;;;;;;;2.50;2.40;;;15.40;99.70;;;;;;5024540;28;20612;-76
2022/08/12 04:04:24;;;;;;;4.68;2.67;;;15.30;99.90;;;;;;5023380;28;20304;-76
2022/08/12 04:06:50;;;;;;;3.15;2.90;;;15.30;99.90;;;;;;5029656;28;20200;-77
2022/08/12 04:09:19;;;;;;;3.92;2.88;;;15.30;99.90;;;;;;5023989;28;20173;-77
2022/08/12 04:14:30;;;;;;;3.30;3.10;;;15.30;99.90;;;;;;5025501;28;20200;-76
2022/08/12 04:16:56;;;;;;;3.20;2.80;;;15.30;99.90;;;;;;5022971;28;20204;-77
2022/08/12 04:19:25;;;;;;;3.50;3.20;;;15.30;99.90;;;;;;5020513;28;20276;-76
2022/08/12 04:21:52;;;;;;;5.00;2.95;;;15.30;99.90;;;;;;5020799;28;20193;-76
2022/08/12 04:24:19;;;;;;;3.58;3.25;;;15.30;99.90;;;;;;5023848;28;20184;-76
2022/08/12 04:26:45;;;;;;;2.92;2.72;;;15.30;99.90;;;;;;5027191;28;20253;-77
2022/08/12 04:29:11;;;;;;;3.33;2.90;;;15.40;99.90;;;;;;5027476;28;20232;-77
2022/08/12 04:31:41;;;;;;;3.22;3.00;;;15.40;99.90;;;;;;5025264;28;20199;-76
2022/08/12 04:34:09;;;;;;;4.18;2.65;;;15.40;99.90;;;;;;5020570;28;20174;-77
2022/08/12 04:36:37;;;;;;;3.20;3.00;;;15.50;99.90;;;;;;5025506;28;20193;-77
2022/08/12 04:39:05;;;;;;;2.80;2.58;;;15.50;99.90;;;;;;5025032;28;20181;-77
2022/08/12 04:41:31;;;;;;;3.22;2.92;;;15.60;99.90;;;;;;5022124;28;20566;-76
2022/08/12 04:43:57;;;;;;;3.33;3.05;;;15.60;99.60;;;;;;5031152;28;20204;-77
2022/08/12 04:46:23;;;;;;;3.17;2.83;;;15.60;99.30;;;;;;5027282;28;20655;-77
2022/08/12 04:48:50;;;;;;;2.80;2.63;;;15.70;98.90;;;;;;5034707;28;20173;-77
2022/08/12 04:51:18;;;;;;;2.78;2.58;;;15.70;98.70;;;;;;5035104;28;20172;-77
2022/08/12 04:53:46;;;;;;;3.13;2.83;;;15.80;98.50;;;;;;5038402;28;20191;-75
2022/08/12 04:56:12;;;;;;;2.97;2.60;;;15.90;98.50;;;;;;5026402;28;20207;-75
2022/08/12 04:58:39;;;;;;;2.88;2.70;;;16.00;97.90;;;;;;5023632;28;20172;-77
2022/08/12 05:01:05;;;;;;;2.90;2.70;;;16.10;97.80;;;;;;5024964;28;20187;-77
2022/08/12 05:03:32;;;;;;;2.50;2.40;;;16.10;97.00;;;;;;5031976;28;20185;-78
2022/08/12 05:05:58;;;;;;;3.38;2.50;;;16.20;96.80;;;;;;5037342;28;20287;-78
2022/08/12 05:08:25;;;;;;;2.53;2.42;;;16.30;96.60;;;;;;5030364;28;20239;-76
2022/08/12 05:10:51;;;;;;;2.38;2.28;;;16.40;96.20;;;;;;5030077;28;20168;-77
2022/08/12 05:13:21;;;;;;;2.47;2.28;;;16.50;95.60;;;;;;5036030;28;20199;-77
2022/08/12 05:15:47;;;;;;;3.55;2.60;;;16.60;95.30;;;;;;5028759;28;20292;-78
2022/08/12 05:18:14;;;;;;;2.60;2.40;;;16.70;95.20;;;;;;5032595;28;20470;-78
2022/08/12 05:20:42;;;;;;;2.35;2.25;;;16.80;94.90;;;;;;5035102;28;20192;-84
2022/08/12 05:23:20;;;;;;;2.90;2.53;;;16.80;94.30;;;;;;5028472;28;20213;-82
2022/08/12 05:25:55;;;;;;;3.28;2.72;;;16.90;94.40;;;;;;5034100;28;20255;-81
2022/08/12 05:28:21;;;;;;;4.32;2.70;;;17.00;94.30;;;;;;5037914;28;20206;-79
2022/08/12 05:30:47;;;;;;;3.05;2.20;;;17.00;94.10;;;;;;5031579;28;20176;-79
2022/08/12 05:33:14;;;;;;;4.50;2.58;;;17.10;94.10;;;;;;5033457;28;20646;-79
2022/08/12 05:35:41;;;;;;;5.60;2.75;;;17.20;93.80;;;;;;5031286;28;20214;-79
2022/08/12 05:41:03;;;;;;;2.97;2.45;;;17.30;93.70;;;;;;5033198;28;20271;-80
2022/08/12 05:43:28;;;;;;;6.88;2.83;;;17.40;93.40;;;;;;5040790;28;20301;-80
2022/08/12 05:45:54;;;;;;;3.45;2.55;;;17.50;92.90;;;;;;5034314;28;20806;-80
2022/08/12 05:48:21;;;;;;;4.47;2.67;;;17.60;92.90;;;;;;5037279;28;20219;-80
2022/08/12 05:50:47;;;;;;;3.28;2.80;;;17.60;92.70;;;;;;5034152;28;20173;-82
2022/08/12 05:53:13;;;;;;;2.92;2.70;;;17.60;92.80;;;;;;5034333;28;20203;-80
2022/08/12 05:55:39;;;;;;;3.22;2.60;;;17.70;92.40;;;;;;5046495;28;20227;-81
2022/08/12 05:58:06;;;;;;;3.28;2.40;;;17.80;92.20;;;;;;5030119;28;20201;-80
2022/08/12 06:00:34;;;;;;;2.58;2.38;;;17.80;92.10;;;;;;5032728;28;20683;-79
2022/08/12 06:03:02;;;;;;;2.65;2.50;;;17.90;91.80;;;;;;5031416;28;20302;-78
2022/08/12 06:05:29;;;;;;;3.08;2.75;;;18.00;91.50;;;;;;5036942;28;20196;-79
2022/08/12 06:07:55;;;;;;;2.60;2.40;;;18.00;91.70;;;;;;5029490;28;20224;-80
2022/08/12 06:10:21;;;;;;;3.83;2.47;;;18.10;91.50;;;;;;5031669;28;20264;-79
2022/08/12 06:12:48;;;;;;;3.70;2.60;;;18.20;91.30;;;;;;5034840;28;20244;-78
2022/08/12 06:15:18;;;;;;;2.70;2.53;;;18.20;91.30;;;;;;5034042;28;20180;-79
2022/08/12 06:17:44;;;;;;;4.25;2.63;;;18.30;91.20;;;;;;5033130;28;20183;-79
2022/08/12 06:20:12;;;;;;;6.22;2.88;;;18.40;91.10;;;;;;5035978;28;20183;-80
2022/08/12 06:22:46;;;;;;;3.40;2.67;;;18.50;91.00;;;;;;5032204;28;20326;-80
2022/08/12 06:25:17;;;;;;;2.28;2.08;;;18.50;90.70;;;;;;5028613;28;20206;-80
2022/08/12 06:27:48;;;;;;;4.47;2.50;;;18.60;90.60;;;;;;5028697;28;20654;-79
2022/08/12 06:30:14;;;;;;;3.83;2.50;;;18.70;90.70;;;;;;5037150;28;20173;-79
2022/08/12 06:32:42;;;;;;;2.70;2.50;;;18.80;90.30;;;;;;5031655;28;20185;-77
2022/08/12 06:35:09;;;;;;;2.80;2.60;;;18.80;90.10;;;;;;5028844;28;20181;-78
2022/08/12 06:37:39;;;;;;;7.88;2.50;;;18.90;90.60;;;;;;5030687;28;20197;-78
2022/08/12 06:40:06;;;;;;;4.25;2.33;;;19.00;89.00;;;;;;5028018;28;20702;-77
2022/08/12 06:42:47;;;;;;;2.40;2.20;;;19.10;88.90;;;;;;5034373;28;20299;-76
2022/08/12 06:45:17;;;;;;;4.15;2.42;;;19.30;87.80;;;;;;5024938;28;20187;-78
2022/08/12 06:47:43;;;;;;;5.75;2.42;;;19.40;86.00;;;;;;5028383;28;20175;-78
2022/08/12 06:50:12;;;;;;;3.25;2.40;;;19.60;85.90;;;;;;5019425;28;20646;-80
2022/08/12 06:52:38;;;;;;;5.45;2.13;;;19.70;84.90;;;;;;5028080;28;20639;-81
2022/08/12 06:55:04;;;;;;;2.78;2.22;;;19.80;83.30;;;;;;5032490;28;20185;-80
2022/08/12 06:57:30;;;;;;;2.20;2.10;;;20.00;82.70;;;;;;5032625;28;20570;-80
2022/08/12 06:59:56;;;;;;;4.15;2.63;;;20.10;82.30;;;;;;5031395;28;20644;-81
2022/08/12 07:02:22;;;;;;;2.45;2.25;;;20.20;81.60;;;;;;5026346;28;20622;-79
2022/08/12 07:04:48;;;;;;;2.30;2.10;;;20.40;80.70;;;;;;5037922;28;20172;-80
2022/08/12 07:07:14;;;;;;;2.20;2.10;;;20.40;80.70;;;;;;5050724;28;20218;-80
2022/08/12 07:09:41;;;;;;;2.33;2.05;;;20.50;79.60;;;;;;5029732;28;20188;-80
2022/08/12 07:12:15;;;;;;;3.25;2.00;;;20.70;79.90;;;;;;5030675;28;20185;-80
2022/08/12 07:14:41;;;;;;;3.42;2.10;;;20.70;78.90;;;;;;5032060;28;20238;-79
2022/08/12 07:17:06;;;;;;;3.58;1.90;;;20.80;78.70;;;;;;5034553;28;20726;-79
2022/08/12 07:19:33;;;;;;;2.50;2.25;;;20.90;78.30;;;;;;5033828;28;20185;-78
2022/08/12 07:22:05;;;;;;;2.47;2.28;;;21.00;77.30;;;;;;5037880;28;20918;-81
2022/08/12 07:24:31;;;;;;;2.17;2.00;;;21.10;77.30;;;;;;5029866;28;20184;-79
2022/08/12 07:26:57;;;;;;;2.50;2.30;;;21.20;77.60;;;;;;5026568;28;20197;-79
2022/08/12 07:29:24;;;;;;;2.78;1.92;;;21.30;76.70;;;;;;5037836;28;20180;-79
2022/08/12 07:31:51;;;;;;;2.20;2.00;;;21.40;76.70;;;;;;5024844;28;20577;-79
2022/08/12 07:34:17;;;;;;;5.07;2.10;;;21.50;75.60;;;;;;5023645;28;20194;-79
2022/08/12 07:36:44;;;;;;;2.88;2.30;;;21.50;75.60;;;;;;5023397;28;20204;-78
2022/08/12 07:39:12;;;;;;;7.07;2.20;;;21.60;75.50;;;;;;5019470;28;20735;-74
2022/08/12 07:41:38;;;;;;;2.55;1.67;;;21.60;74.30;;;;;;5021493;28;20209;-74
2022/08/12 07:44:08;;;;;;;5.78;1.67;;;21.60;74.30;;;;;;5030197;28;20227;-75
2022/08/12 07:46:37;;;;;;;2.95;1.70;;;21.80;73.70;;;;;;5031025;28;20810;-74
2022/08/12 07:49:14;;;;;;;6.50;1.83;;;21.80;73.40;;;;;;5027746;28;20193;-75
2022/08/12 07:51:41;;;;;;;7.15;2.22;;;21.90;73.80;;;;;;5033080;28;20240;-75
2022/08/12 07:54:08;;;;;;;2.28;1.85;;;22.10;73.30;;;;;;5031954;28;20203;-76
2022/08/12 07:56:43;;;;;;;2.35;2.10;;;22.30;72.60;;;;;;5039544;28;20216;-74
2022/08/12 07:59:09;;;;;;;3.03;1.75;;;22.50;71.40;;;;;;5032430;28;20183;-74
2022/08/12 08:01:39;;;;;;;5.25;2.22;;;22.50;70.10;;;;;;5032834;28;20212;-75
2022/08/12 08:06:49;;;;;;;5.13;1.90;;;22.40;69.70;;;;;;5029374;28;20212;-74
2022/08/12 08:09:17;;;;;;;2.50;1.80;;;22.50;69.80;;;;;;5034938;28;20177;-78
2022/08/12 08:14:28;;;;;;;3.10;1.90;;;22.70;69.00;;;;;;5030788;28;20230;-78
2022/08/12 08:16:56;;;;;;;7.15;1.70;;;22.70;69.60;;;;;;5036747;28;20201;-77
2022/08/12 08:19:22;;;;;;;4.43;1.80;;;22.70;69.10;;;;;;5035001;28;20180;-77
2022/08/12 08:21:53;;;;;;;5.60;2.10;;;22.80;68.60;;;;;;5030093;28;20188;-75
2022/08/12 08:24:23;;;;;;;2.58;1.60;;;22.80;68.90;;;;;;5032635;28;20207;-79
2022/08/12 08:26:51;;;;;;;5.20;1.77;;;22.90;67.60;;;;;;5035477;28;20691;-73
2022/08/12 08:29:18;;;;;;;1.58;1.48;;;22.90;67.80;;;;;;5036101;28;20211;-73
2022/08/12 08:31:45;;;;;;;2.00;1.25;;;23.00;68.00;;;;;;5033586;28;20257;-74
2022/08/12 08:34:16;;;;;;;3.97;1.35;;;23.30;68.30;;;;;;5031334;28;20396;-73
2022/08/12 08:36:42;;;;;;;3.08;1.85;;;23.70;67.30;;;;;;5027588;28;20666;-72
2022/08/12 08:39:09;;;;;;;3.03;1.48;;;24.10;66.30;;;;;;5030939;28;20187;-75
2022/08/12 08:44:19;;;;;;;5.70;1.83;;;24.40;64.20;;;;;;5030713;28;20551;-71
2022/08/12 08:46:45;;;;;;;6.65;1.88;;;24.50;63.80;;;;;;5033809;28;20199;-71
2022/08/12 08:49:12;;;;;;;3.53;1.90;;;24.70;63.60;;;;;;5028756;28;20207;-70
2022/08/12 08:51:38;;;;;;;1.70;1.60;;;24.80;63.00;;;;;;5032482;28;20270;-71
2022/08/12 08:54:07;;;;;;;4.43;1.50;;;25.00;62.40;;;;;;5030178;28;20192;-77
2022/08/12 08:56:41;;;;;;;2.60;1.27;;;25.20;62.30;;;;;;5044885;28;20208;-75
2022/08/12 08:59:07;;;;;;;1.33;1.25;;;25.50;60.60;;;;;;5031276;28;20658;-75
2022/08/12 09:01:32;;;;;;;1.90;1.17;;;25.70;58.20;;;;;;5030700;28;20250;-72
2022/08/12 09:03:58;;;;;;;1.95;0.90;;;26.10;57.60;;;;;;5030060;28;20209;-74
2022/08/12 09:06:24;;;;;;;2.05;0.88;;;26.30;55.90;;;;;;5030228;28;20246;-72
2022/08/12 09:08:49;;;;;;;1.40;0.88;;;26.60;55.10;;;;;;5027288;28;20605;-72
2022/08/12 09:13:59;;;;;;;2.00;0.77;;;27.10;53.90;;;;;;5032918;28;20204;-72
2022/08/12 09:16:25;;;;;;;0.80;0.80;;;27.20;52.60;;;;;;5031788;28;20208;-72
2022/08/12 09:18:50;;;;;;;3.60;1.10;;;27.70;52.50;;;;;;5044167;28;20580;-73
2022/08/12 09:21:16;;;;;;;2.15;0.90;;;28.20;51.30;;;;;;5035240;28;20566;-73
2022/08/12 09:23:41;;;;;;;1.20;1.00;;;28.80;50.90;;;;;;5026188;28;20210;-72
2022/08/12 09:26:08;;;;;;;0.80;0.80;;;29.50;50.00;;;;;;5033678;28;20227;-73
2022/08/12 09:28:35;;;;;;;1.38;1.00;;;31.40;47.90;;;;;;5031870;28;20240;-76
2022/08/12 09:31:03;;;;;;;1.10;1.00;;;33.90;43.90;;;;;;5029718;28;20176;-75
2022/08/12 09:33:29;;;;;;;0.60;0.60;;;35.30;40.00;;;;;;5029288;28;20207;-77
2022/08/12 09:35:56;;;;;;;2.80;1.38;;;36.50;37.90;;;;;;5028612;28;20210;-72
2022/08/12 09:38:22;;;;;;;2.53;0.90;;;36.70;37.10;;;;;;5025499;28;20176;-72
2022/08/12 09:40:48;;;;;;;2.08;1.00;;;36.90;36.30;;;;;;5030199;28;20183;-70
2022/08/12 09:46:00;;;;;;;2.78;0.88;;;36.40;36.70;;;;;;5027481;28;20748;-73
2022/08/12 09:48:26;;;;;;;0.45;0.45;;;36.60;36.00;;;;;;5027413;28;20515;-75
2022/08/12 09:50:52;;;;;;;3.92;0.88;;;37.00;35.40;;;;;;5022175;28;20203;-70
2022/08/12 09:53:23;;;;;;;1.95;0.75;;;36.30;35.60;;;;;;5027933;28;20176;-73
2022/08/12 09:55:57;;;;;;;2.05;0.80;;;37.00;35.00;;;;;;5022666;28;20204;-71
2022/08/12 09:58:28;;;;;;;0.60;0.60;;;37.70;34.90;;;;;;5037134;28;20533;-71
2022/08/12 10:01:00;;;;;;;1.10;0.57;;;38.40;33.90;;;;;;5040162;28;20226;-71
2022/08/12 10:03:30;;;;;;;0.40;0.38;;;39.70;32.90;;;;;;5032969;28;20709;-72
2022/08/12 10:05:57;;;;;;;0.75;0.70;;;40.30;32.20;;;;;;5024112;28;20210;-72
2022/08/12 10:08:29;;;;;;;0.50;0.50;;;40.90;31.60;;;;;;5032469;28;20180;-71
2022/08/12 10:13:42;;;;;;;0.65;0.47;;;41.50;30.70;;;;;;5030679;28;20218;-71
2022/08/12 10:16:19;;;;;;;1.45;0.82;;;41.50;31.30;;;;;;5027946;28;20203;-73
2022/08/12 10:18:53;;;;;;;0.50;0.50;;;41.80;30.60;;;;;;5023774;28;20211;-71
2022/08/12 10:21:37;;;;;;;0.80;0.80;;;42.80;30.00;;;;;;5022334;28;20231;-71
2022/08/12 10:24:13;;;;;;;3.13;0.93;;;42.60;30.00;;;;;;5024645;28;20226;-71
2022/08/12 10:29:35;;;;;;;0.90;0.50;;;42.80;30.50;;;;;;5021996;28;20227;-74
2022/08/12 10:32:02;;;;;;;0.73;0.68;;;43.10;29.80;;;;;;5032350;28;20195;-73
2022/08/12 10:34:28;;;;;;;0.70;0.70;;;42.30;29.90;;;;;;5040423;28;20176;-74
2022/08/12 10:36:57;;;;;;;1.55;0.70;;;42.20;30.60;;;;;;5025081;28;20205;-74
2022/08/12 10:39:25;;;;;;;0.75;0.75;;;43.00;29.70;;;;;;5027520;28;20223;-73
2022/08/12 10:44:35;;;;;;;1.25;0.77;;;43.80;29.70;;;;;;5026530;28;20192;-74
2022/08/12 10:47:02;;;;;;;1.58;0.70;;;43.80;29.30;;;;;;5031679;28;20211;-72
2022/08/12 10:49:33;;;;;;;0.70;0.70;;;43.40;29.30;;;;;;5026429;28;20809;-72
2022/08/12 10:52:01;;;;;;;0.90;0.90;;;43.40;29.70;;;;;;5022763;28;20239;-72
2022/08/12 10:54:27;;;;;;;0.50;0.50;;;43.60;29.60;;;;;;5024237;28;20545;-72
2022/08/12 10:56:56;;;;;;;0.82;0.80;;;44.00;29.00;;;;;;5027128;28;20478;-71
2022/08/12 10:59:23;;;;;;;0.60;0.60;;;44.30;28.90;;;;;;5029588;28;20240;-72
2022/08/12 11:01:50;;;;;;;1.10;1.00;;;44.70;28.90;;;;;;5028589;28;20204;-75
2022/08/12 11:04:16;;;;;;;0.57;0.57;;;44.80;28.50;;;;;;5029065;28;20602;-74
2022/08/12 11:06:46;;;;;;;3.13;0.77;;;43.30;29.10;;;;;;5031221;28;20215;-73
2022/08/12 11:09:17;;;;;;;0.90;0.75;;;41.10;30.30;;;;;;5033439;28;20179;-74
2022/08/12 11:11:47;;;;;;;0.80;0.70;;;41.00;31.40;;;;;;5024939;28;20179;-71
2022/08/12 11:14:27;;;;;;;0.82;0.82;;;42.20;30.50;;;;;;5023912;28;20184;-71
2022/08/12 11:16:56;;;;;;;1.35;0.70;;;43.10;30.00;;;;;;5033156;28;20281;-72
2022/08/12 11:19:25;;;;;;;1.65;0.93;;;43.60;30.00;;;;;;5026893;28;20299;-72
2022/08/12 11:21:51;;;;;;;1.15;0.85;;;44.00;29.50;;;;;;5024211;28;20262;-72
2022/08/12 11:24:17;;;;;;;1.20;1.10;;;44.90;29.10;;;;;;5025709;28;20175;-72
2022/08/12 11:26:43;;;;;;;1.00;1.00;;;45.70;29.10;;;;;;5031400;28;20215;-72
2022/08/12 11:29:08;;;;;;;0.80;0.80;;;45.00;29.20;;;;;;5028779;28;20659;-72
2022/08/12 11:31:34;;;;;;;0.80;0.80;;;44.20;28.70;;;;;;5036193;28;20180;-72
2022/08/12 11:34:00;;;;;;;1.13;1.00;;;42.20;29.80;;;;;;5030490;28;20663;-73
2022/08/12 11:36:25;;;;;;;1.27;0.93;;;40.80;31.30;;;;;;5031262;28;20191;-72
2022/08/12 11:38:51;;;;;;;0.60;0.60;;;41.40;31.60;;;;;;5037599;28;20726;-71
2022/08/12 11:41:20;;;;;;;1.13;1.00;;;42.80;30.20;;;;;;5029771;28;20666;-71
2022/08/12 11:43:46;;;;;;;0.80;0.80;;;43.00;29.90;;;;;;5026205;28;20675;-70
2022/08/12 11:46:12;;;;;;;1.08;1.08;;;43.00;30.00;;;;;;5032434;28;20286;-71
2022/08/12 11:48:38;;;;;;;0.82;0.80;;;43.20;29.90;;;;;;5038408;28;20172;-72
2022/08/12 11:51:08;;;;;;;2.75;1.10;;;41.80;30.80;;;;;;5032081;28;20279;-72
2022/08/12 11:53:34;;;;;;;4.18;1.10;;;42.00;31.00;;;;;;5026729;28;20181;-72
2022/08/12 11:56:01;;;;;;;1.10;0.98;;;43.10;30.30;;;;;;5034905;28;20731;-72
2022/08/12 11:58:27;;;;;;;0.80;0.80;;;43.70;29.80;;;;;;5025680;28;20188;-72
2022/08/12 12:00:52;;;;;;;3.40;1.55;;;44.40;29.50;;;;;;5026043;28;20738;-72
2022/08/12 12:03:18;;;;;;;0.95;0.90;;;44.90;29.40;;;;;;5029524;28;20709;-76
2022/08/12 12:05:44;;;;;;;0.73;0.73;;;45.30;28.90;;;;;;5029141;28;20258;-72
2022/08/12 12:08:22;;;;;;;0.82;0.80;;;45.20;28.60;;;;;;5023101;28;20184;-75
2022/08/12 12:10:50;;;;;;;1.90;0.82;;;44.80;28.60;;;;;;5028202;28;20203;-74
2022/08/12 12:13:16;;;;;;;1.20;1.15;;;45.00;28.80;;;;;;5032742;28;20283;-69
2022/08/12 12:15:42;;;;;;;0.75;0.63;;;43.60;29.20;;;;;;5021193;28;20545;-70
2022/08/12 12:18:27;;;;;;;0.68;0.68;;;42.50;29.80;;;;;;5023176;28;20738;-71
2022/08/12 12:20:57;;;;;;;1.92;1.00;;;41.00;30.50;;;;;;5022092;28;20276;-71
2022/08/12 12:23:22;;;;;;;0.65;0.65;;;39.90;31.40;;;;;;5020283;28;20235;-71
2022/08/12 12:25:48;;;;;;;0.77;0.77;;;39.90;32.10;;;;;;5026953;28;20235;-71
2022/08/12 12:28:14;;;;;;;1.20;1.10;;;39.60;32.00;;;;;;5025084;28;20651;-72
2022/08/12 12:30:40;;;;;;;0.77;0.77;;;38.60;33.00;;;;;;5033387;28;20208;-72
2022/08/12 12:33:08;;;;;;;2.22;1.33;;;37.90;33.50;;;;;;5026481;28;20180;-72
2022/08/12 12:35:34;;;;;;;1.38;0.90;;;37.60;34.30;;;;;;5022982;28;20332;-72
2022/08/12 12:38:05;;;;;;;2.33;1.30;;;37.00;35.00;;;;;;5023407;28;20227;-72
2022/08/12 12:40:32;;;;;;;1.02;0.80;;;36.30;35.10;;;;;;5025843;28;20177;-73
2022/08/12 12:42:59;;;;;;;1.05;0.98;;;35.70;36.40;;;;;;5028719;28;20211;-72
2022/08/12 12:45:25;;;;;;;0.65;0.65;;;36.90;35.90;;;;;;5023135;28;20195;-71
2022/08/12 12:48:07;;;;;;;1.02;0.80;;;38.10;34.50;;;;;;5026896;28;20255;-70
2022/08/12 12:50:39;;;;;;;0.90;0.90;;;39.20;33.50;;;;;;5027062;28;20188;-70
2022/08/12 12:53:05;;;;;;;0.80;0.80;;;40.70;32.50;;;;;;5029115;28;20284;-71
2022/08/12 12:55:34;;;;;;;1.15;1.15;;;41.80;32.20;;;;;;5026985;28;20196;-72
2022/08/12 12:58:04;;;;;;;1.95;0.65;;;42.60;31.20;;;;;;5026240;28;20181;-72
2022/08/12 13:00:34;;;;;;;1.83;1.17;;;43.40;29.90;;;;;;5028873;28;20176;-71
2022/08/12 13:02:59;;;;;;;1.25;0.63;;;43.50;29.30;;;;;;5030050;28;20196;-71
2022/08/12 13:05:34;;;;;;;0.75;0.63;;;42.20;29.70;;;;;;5026453;28;20258;-71
2022/08/12 13:08:02;;;;;;;1.45;0.88;;;40.20;30.90;;;;;;5019824;28;20178;-71
2022/08/12 13:10:30;;;;;;;1.13;1.13;;;38.40;32.80;;;;;;5024358;28;20184;-71
2022/08/12 13:12:56;;;;;;;1.25;1.15;;;37.00;34.10;;;;;;5031008;28;20214;-70
2022/08/12 13:15:22;;;;;;;1.20;1.10;;;35.50;35.70;;;;;;5026354;28;20183;-72
2022/08/12 13:17:54;;;;;;;1.75;1.05;;;34.20;37.30;;;;;;5027660;28;20655;-70
2022/08/12 13:20:21;;;;;;;2.35;1.20;;;33.20;38.60;;;;;;5019897;28;20192;-70
2022/08/12 13:22:48;;;;;;;1.95;0.80;;;32.70;38.80;;;;;;5029213;28;20214;-72
2022/08/12 13:25:15;;;;;;;1.65;1.00;;;32.40;39.30;;;;;;5026965;28;20190;-72
2022/08/12 13:27:49;;;;;;;1.02;1.02;;;32.10;40.00;;;;;;5029611;28;20180;-71
2022/08/12 13:30:19;;;;;;;1.02;1.02;;;31.90;39.70;;;;;;5031816;28;20187;-71
2022/08/12 13:32:50;;;;;;;2.60;1.10;;;32.20;40.00;;;;;;5024659;28;20690;-71
2022/08/12 13:35:17;;;;;;;1.10;1.10;;;32.80;38.70;;;;;;5027029;28;20647;-72
2022/08/12 13:37:53;;;;;;;1.33;1.10;;;34.20;36.80;;;;;;5028495;28;20273;-70
2022/08/12 13:40:23;;;;;;;1.05;1.05;;;34.10;37.20;;;;;;5020956;28;20259;-70
2022/08/12 13:42:51;;;;;;;1.75;1.45;;;33.70;37.70;;;;;;5024059;28;20235;-71
2022/08/12 13:45:17;;;;;;;1.85;0.85;;;32.90;38.40;;;;;;5021314;28;20180;-72
2022/08/12 13:47:55;;;;;;;2.38;1.02;;;32.20;39.60;;;;;;5038144;28;20183;-68
2022/08/12 13:50:28;;;;;;;0.82;0.82;;;31.70;40.40;;;;;;5030838;28;20176;-75
2022/08/12 13:52:54;;;;;;;0.90;0.90;;;31.30;41.00;;;;;;5028627;28;20184;-71
2022/08/12 13:55:24;;;;;;;1.30;1.20;;;31.20;40.90;;;;;;5022383;28;20575;-72
2022/08/12 13:57:51;;;;;;;4.03;1.13;;;31.30;41.20;;;;;;5022292;28;20655;-71
2022/08/12 14:00:17;;;;;;;1.45;1.02;;;31.80;41.00;;;;;;5027657;28;20214;-73
2022/08/12 14:02:42;;;;;;;1.58;1.05;;;32.80;40.00;;;;;;5028888;28;20235;-73
2022/08/12 14:05:08;;;;;;;1.08;0.90;;;34.80;37.90;;;;;;5028904;28;20230;-73
2022/08/12 14:08:01;;;;;;;1.55;0.93;;;35.90;36.60;;;;;;5031234;28;20254;-74
2022/08/12 14:10:38;;;;;;;2.22;0.88;;;38.70;34.80;;;;;;5028165;28;20909;-74
2022/08/12 14:13:15;;;;;;;1.50;0.85;;;41.10;32.20;;;;;;5020951;28;20195;-73
2022/08/12 14:15:47;;;;;;;0.90;0.85;;;40.90;31.30;;;;;;5027759;28;20195;-72
2022/08/12 14:18:21;;;;;;;1.15;1.00;;;40.00;32.30;;;;;;5023444;28;20168;-72
2022/08/12 14:20:57;;;;;;;0.95;0.95;;;39.30;33.00;;;;;;5024516;28;22051;-75
2022/08/12 14:23:26;;;;;;;1.10;0.77;;;39.60;33.00;;;;;;5040432;28;20206;-71
2022/08/12 14:25:54;;;;;;;1.92;0.90;;;42.10;31.40;;;;;;5025778;28;20198;-72
2022/08/12 14:28:22;;;;;;;1.67;0.73;;;44.60;29.50;;;;;;5029359;28;20176;-72
2022/08/12 14:30:55;;;;;;;1.35;0.75;;;44.20;29.30;;;;;;5031584;28;20180;-72
2022/08/12 14:33:22;;;;;;;0.90;0.90;;;45.30;29.60;;;;;;5035484;28;20219;-72
2022/08/12 14:35:49;;;;;;;1.40;1.25;;;47.50;28.60;;;;;;5027946;28;20210;-72
2022/08/12 14:38:24;;;;;;;6.90;1.45;;;48.80;33.60;;;;;;5030604;28;20554;-73
2022/08/12 14:40:55;;;;;;;3.90;1.58;;;49.20;31.60;;;;;;5026832;28;20634;-73
2022/08/12 14:43:21;;;;;;;2.22;1.15;;;45.90;33.10;;;;;;5051903;28;20219;-73
2022/08/12 14:45:47;;;;;;;1.95;1.10;;;40.80;37.90;;;;;;5031124;28;20195;-75